^^
Saratoga-Weather Station Historical Data
Daily Summary for May 28, 2020 Units:  Metric    English   Both
Daily Weekly Monthly Yearly Custom
  High: Low: Average:
Temperature: 4.4 °C -0.2 °C 2.7 °C
Dew Point: 3.3 °C -0.9 °C 1.7 °C
Humidity: 96% 87% 93%
Wind Speed: 16.3km/h 0km/h 2.3km/h
Wind Gust: 27.4km/h - -
Wind- - South
Pressure: 979.0 hPa 976.6 hPa -
Precipitation: 4.6 mm    
Historical Graphs
 
 
Tabular Data for May 28, 2020
Time Temperature Dew Point Pressure Wind Wind Speed Wind Gust Humidity Rainfall Rate (Hourly) solar
00:00 4.1 °C 2.5 °C 978.7 hPa NE 9.7 km/h 16.1 km/h 89% 0.0 mm 0 W/m2
00:05 4.1 °C 2.5 °C 978.7 hPa NE 6.4 km/h 16.1 km/h 89% 0.0 mm 0 W/m2
00:10 4.1 °C 2.5 °C 978.7 hPa NW 9.7 km/h 12.9 km/h 89% 0.0 mm 0 W/m2
00:15 4.2 °C 2.5 °C 978.7 hPa West 9.7 km/h 9.7 km/h 89% 0.0 mm 0 W/m2
00:20 4.2 °C 2.5 °C 978.3 hPa NE 7.9 km/h 8 km/h 89% 0.0 mm 0 W/m2
00:25 4.1 °C 2.5 °C 978.7 hPa NNE 3.2 km/h 6.4 km/h 89% 0.0 mm 0 W/m2
00:30 4.1 °C 2.5 °C 978.7 hPa NNW 6.4 km/h 8 km/h 89% 0.0 mm 0 W/m2
00:35 4 °C 2.5 °C 978.7 hPa NW 3.2 km/h 14.5 km/h 90% 0.2 mm 0 W/m2
00:40 3.9 °C 2.4 °C 978.7 hPa North 13 km/h 17.7 km/h 90% 0.2 mm 0 W/m2
00:45 3.9 °C 2.4 °C 978.7 hPa NW 1.4 km/h 17.7 km/h 90% 0.2 mm 0 W/m2
00:50 3.8 °C 2.5 °C 978.3 hPa WNW 3.2 km/h 16.1 km/h 91% 0.2 mm 0 W/m2
00:55 3.8 °C 2.5 °C 978.7 hPa WNW 1.4 km/h 14.5 km/h 91% 0.2 mm 0 W/m2
01:00 3.8 °C 2.5 °C 978.3 hPa NNE 6.4 km/h 27.4 km/h 91% 0.2 mm 0 W/m2
01:05 3.8 °C 2.5 °C 978.3 hPa WNW 11.1 km/h 27.4 km/h 91% 0.2 mm 0 W/m2
01:10 3.8 °C 2.5 °C 978.3 hPa NNW 13 km/h 12.9 km/h 91% 0.2 mm 0 W/m2
01:15 3.8 °C 2.5 °C 978.3 hPa NNW 6.4 km/h 27.4 km/h 91% 0.2 mm 0 W/m2
01:20 3.7 °C 2.4 °C 978.3 hPa WNW 6.4 km/h 11.3 km/h 91% 0.2 mm 0 W/m2
01:25 3.7 °C 2.4 °C 978.3 hPa NNW 1.4 km/h 9.7 km/h 91% 0.2 mm 0 W/m2
01:30 3.7 °C 2.4 °C 978.3 hPa NE 1.4 km/h 8 km/h 91% 0.0 mm 0 W/m2
01:35 3.7 °C 2.4 °C 978.3 hPa NNW 6.4 km/h 24.1 km/h 91% 0.0 mm 0 W/m2
01:40 3.7 °C 2.4 °C 978.3 hPa NNW 1.4 km/h 14.5 km/h 91% 0.0 mm 0 W/m2
01:45 3.7 °C 2.4 °C 978.3 hPa WNW 4.7 km/h 24.1 km/h 91% 0.0 mm 0 W/m2
01:50 3.7 °C 2.4 °C 978.7 hPa NE 6.4 km/h 16.1 km/h 91% 0.0 mm 0 W/m2
01:55 3.7 °C 2.4 °C 978.7 hPa NW 3.2 km/h 9.7 km/h 91% 0.0 mm 0 W/m2
02:00 3.7 °C 2.4 °C 978.3 hPa West 11.1 km/h 24.1 km/h 91% 0.0 mm 0 W/m2
02:05 3.7 °C 2.4 °C 978.7 hPa NW 1.4 km/h 14.5 km/h 91% 0.0 mm 0 W/m2
02:10 3.7 °C 2.4 °C 978.7 hPa WNW 16.3 km/h 24.1 km/h 91% 0.0 mm 0 W/m2
02:15 3.7 °C 2.4 °C 978.7 hPa East 6.4 km/h 8 km/h 91% 0.0 mm 0 W/m2
02:20 3.7 °C 2.4 °C 978.7 hPa NNE 3.2 km/h 22.5 km/h 91% 0.0 mm 0 W/m2
02:25 3.7 °C 2.4 °C 978.7 hPa NE 1.4 km/h 8 km/h 91% 0.0 mm 0 W/m2
02:30 3.7 °C 2.4 °C 978.7 hPa Calm   8 km/h 91% 0.0 mm 0 W/m2
02:35 3.7 °C 2.4 °C 978.7 hPa WSW 1.4 km/h 3.2 km/h 91% 0.0 mm 0 W/m2
02:40 3.7 °C 2.4 °C 979.0 hPa ESE 11.1 km/h 11.3 km/h 91% 0.0 mm 0 W/m2
02:45 3.7 °C 2.4 °C 979.0 hPa West 1.4 km/h 8 km/h 91% 0.0 mm 0 W/m2
02:50 3.7 °C 2.4 °C 979.0 hPa West 3.2 km/h 9.7 km/h 91% 0.0 mm 0 W/m2
02:55 3.7 °C 2.4 °C 979.0 hPa NW 4.7 km/h 6.4 km/h 91% 0.0 mm 0 W/m2
03:00 3.7 °C 2.4 °C 979.0 hPa NNW 3.2 km/h 4.8 km/h 91% 0.0 mm 0 W/m2
03:05 3.7 °C 2.4 °C 979.0 hPa NW 7.9 km/h 8 km/h 91% 0.0 mm 0 W/m2
03:10 3.7 °C 2.4 °C 979.0 hPa WNW 1.4 km/h 14.5 km/h 91% 0.0 mm 0 W/m2
03:15 3.8 °C 2.5 °C 979.0 hPa NW 3.2 km/h 8 km/h 91% 0.0 mm 0 W/m2
03:20 3.8 °C 2.5 °C 979.0 hPa NW 3.2 km/h 14.5 km/h 91% 0.0 mm 0 W/m2
03:25 3.8 °C 2.5 °C 978.7 hPa North 6.4 km/h 12.9 km/h 91% 0.0 mm 0 W/m2
03:30 3.8 °C 2.5 °C 978.7 hPa NW 4.7 km/h 9.7 km/h 91% 0.0 mm 0 W/m2
03:35 3.8 °C 2.5 °C 978.7 hPa Calm   9.7 km/h 91% 0.0 mm 0 W/m2
03:40 3.8 °C 2.5 °C 978.7 hPa WNW 4.7 km/h 12.9 km/h 91% 0.0 mm 0 W/m2
03:45 3.8 °C 2.6 °C 978.7 hPa NNW 6.4 km/h 8 km/h 92% 0.0 mm 0 W/m2
03:50 3.8 °C 2.5 °C 978.7 hPa North 1.4 km/h 9.7 km/h 91% 0.0 mm 0 W/m2
03:55 3.8 °C 2.5 °C 978.3 hPa North 1.4 km/h 6.4 km/h 91% 0.0 mm 0 W/m2
04:00 3.7 °C 2.4 °C 978.7 hPa WSW 4.7 km/h 12.9 km/h 91% 0.0 mm 0 W/m2
04:05 3.7 °C 2.4 °C 978.7 hPa SW 4.7 km/h 9.7 km/h 91% 0.0 mm 0 W/m2
04:10 3.7 °C 2.5 °C 978.7 hPa NNE 4.7 km/h 12.9 km/h 92% 0.0 mm 0 W/m2
04:15 3.7 °C 2.5 °C 978.7 hPa WNW 11.1 km/h 11.3 km/h 92% 0.0 mm 0 W/m2
04:20 3.7 °C 2.4 °C 978.7 hPa WSW 1.4 km/h 4.8 km/h 91% 0.0 mm 0 W/m2
04:25 3.7 °C 2.4 °C 978.7 hPa WNW 4.7 km/h 4.8 km/h 91% 0.0 mm 0 W/m2
04:30 3.7 °C 2.5 °C 978.7 hPa NW 3.2 km/h 6.4 km/h 92% 0.0 mm 0 W/m2
04:35 3.7 °C 2.4 °C 978.3 hPa NE 3.2 km/h 4.8 km/h 91% 0.0 mm 0 W/m2
04:40 3.6 °C 2.3 °C 978.3 hPa WNW 4.7 km/h 12.9 km/h 91% 0.0 mm 0 W/m2
04:45 3.5 °C 2.2 °C 978.7 hPa NW 4.7 km/h 6.4 km/h 91% 0.0 mm 0 W/m2
04:50 3.5 °C 2.3 °C 978.3 hPa East 3.2 km/h 12.9 km/h 92% 0.0 mm 0 W/m2
04:55 3.5 °C 2.3 °C 978.3 hPa WNW 3.2 km/h 4.8 km/h 92% 0.0 mm 0 W/m2
05:00 3.5 °C 2.3 °C 978.3 hPa WNW 1.4 km/h 4.8 km/h 92% 0.0 mm 0 W/m2
05:05 3.4 °C 2.1 °C 978.3 hPa NNW 1.4 km/h 6.4 km/h 91% 0.0 mm 0 W/m2
05:11 3.3 °C 2.1 °C 978.3 hPa NNW 3.2 km/h 4.8 km/h 92% 0.0 mm 0 W/m2
05:16 3.3 °C 2.1 °C 978.3 hPa ENE 3.2 km/h 6.4 km/h 92% 0.0 mm 0 W/m2
05:21 3.3 °C 2.1 °C 978.3 hPa ENE 1.4 km/h 6.4 km/h 92% 0.0 mm 0 W/m2
05:26 3.2 °C 2 °C 978.3 hPa East 1.4 km/h 4.8 km/h 92% 0.0 mm 0 W/m2
05:31 3.1 °C 1.9 °C 978.3 hPa East 1.4 km/h 3.2 km/h 92% 0.0 mm 0 W/m2
05:36 2.8 °C 1.5 °C 978.3 hPa Calm   1.6 km/h 91% 0.0 mm 0 W/m2
05:41 2.6 °C 1.3 °C 978.3 hPa Calm     91% 0.0 mm 0 W/m2
05:46 2.4 °C 1.2 °C 978.3 hPa East 1.4 km/h 3.2 km/h 92% 0.0 mm 0 W/m2
05:51 2.3 °C 1.3 °C 978.0 hPa Calm     93% 0.0 mm 0 W/m2
05:56 2.3 °C 1.3 °C 978.0 hPa Calm   3.2 km/h 93% 0.0 mm 0 W/m2
06:01 2.4 °C 1.5 °C 978.0 hPa Calm     94% 0.0 mm 0 W/m2
06:06 2.4 °C 1.5 °C 978.0 hPa NNE 1.4 km/h 3.2 km/h 94% 0.0 mm 0 W/m2
06:11 2.6 °C 1.7 °C 978.0 hPa Calm   4.8 km/h 94% 0.0 mm 0 W/m2
06:16 2.7 °C 1.8 °C 977.6 hPa NE 3.2 km/h 8 km/h 94% 0.0 mm 0 W/m2
06:21 2.7 °C 1.8 °C 977.6 hPa Calm   3.2 km/h 94% 0.0 mm 0 W/m2
06:26 2.7 °C 1.8 °C 977.6 hPa Calm   8 km/h 94% 0.0 mm 0 W/m2
06:31 2.6 °C 1.7 °C 977.6 hPa Calm     94% 0.0 mm 0 W/m2
06:36 2.6 °C 1.7 °C 977.6 hPa Calm     94% 0.0 mm 0 W/m2
06:41 2.4 °C 1.5 °C 977.6 hPa Calm     94% 0.0 mm 0 W/m2
06:46 2.3 °C 1.4 °C 977.6 hPa Calm   4.8 km/h 94% 0.0 mm 0 W/m2
06:51 2.3 °C 1.4 °C 978.0 hPa Calm     94% 0.0 mm 0 W/m2
06:56 2.3 °C 1.6 °C 977.6 hPa Calm   9.7 km/h 95% 0.0 mm 0 W/m2
07:01 2.3 °C 1.6 °C 977.6 hPa NE 4.7 km/h 6.4 km/h 95% 0.0 mm 0 W/m2
07:06 2.4 °C 1.7 °C 977.6 hPa North 1.4 km/h 6.4 km/h 95% 0.0 mm 0 W/m2
07:11 2.3 °C 1.6 °C 977.6 hPa NE 1.4 km/h 8 km/h 95% 0.0 mm 0 W/m2
07:16 2.3 °C 1.6 °C 977.6 hPa NE 3.2 km/h 3.2 km/h 95% 0.0 mm 0 W/m2
07:21 2.3 °C 1.6 °C 977.6 hPa NNE 1.4 km/h 3.2 km/h 95% 0.0 mm 0 W/m2
07:26 2.2 °C 1.3 °C 977.6 hPa Calm   1.6 km/h 94% 0.0 mm 0 W/m2
07:31 2.1 °C 1.2 °C 977.6 hPa Calm     94% 0.0 mm 0 W/m2
07:36 1.8 °C 0.9 °C 977.6 hPa Calm     94% 0.0 mm 0 W/m2
07:41 1.8 °C 0.9 °C 977.6 hPa Calm   1.6 km/h 94% 0.0 mm 0 W/m2
07:46 1.7 °C 0.8 °C 977.6 hPa Calm     94% 0.0 mm 0 W/m2
07:51 1.7 °C 1 °C 977.6 hPa Calm     95% 0.0 mm 0 W/m2
07:56 1.7 °C 1 °C 977.6 hPa Calm     95% 0.0 mm 0 W/m2
08:01 1.7 °C 1 °C 977.6 hPa West 1.4 km/h 4.8 km/h 95% 0.0 mm 0 W/m2
08:06 1.7 °C 1 °C 977.6 hPa West 1.4 km/h 3.2 km/h 95% 0.0 mm 0 W/m2
08:11 1.8 °C 1.1 °C 977.6 hPa NW 1.4 km/h 4.8 km/h 95% 0.0 mm 0 W/m2
08:16 1.8 °C 1.1 °C 977.6 hPa Calm   1.6 km/h 95% 0.0 mm 0 W/m2
08:21 1.9 °C 1.3 °C 977.6 hPa South 3.2 km/h 3.2 km/h 96% 0.0 mm 0 W/m2
08:26 2 °C 1.4 °C 977.6 hPa Calm     96% 0.0 mm 0 W/m2
08:31 2 °C 1.3 °C 977.3 hPa Calm     95% 0.0 mm 0 W/m2
08:36 2.1 °C 1.5 °C 977.3 hPa South 1.4 km/h 3.2 km/h 96% 0.0 mm 0 W/m2
08:41 2.1 °C 1.5 °C 977.3 hPa Calm   1.6 km/h 96% 0.0 mm 0 W/m2
08:46 2.2 °C 1.6 °C 977.3 hPa Calm   1.6 km/h 96% 0.0 mm 0 W/m2
08:51 2.2 °C 1.6 °C 977.3 hPa Calm   1.6 km/h 96% 0.0 mm 5 W/m2
08:56 2.1 °C 1.5 °C 977.3 hPa Calm     96% 0.0 mm 9 W/m2
09:01 2.1 °C 1.5 °C 977.0 hPa Calm     96% 0.0 mm 7 W/m2
09:06 2.1 °C 1.5 °C 977.3 hPa South 1.4 km/h 1.6 km/h 96% 0.0 mm 9 W/m2
09:11 2.1 °C 1.5 °C 977.0 hPa Calm     96% 0.0 mm 12 W/m2
09:16 2.1 °C 1.5 °C 977.3 hPa Calm     96% 0.0 mm 16 W/m2
09:21 2.1 °C 1.5 °C 977.3 hPa Calm     96% 0.0 mm 18 W/m2
09:26 2.1 °C 1.5 °C 977.3 hPa Calm     96% 0.0 mm 28 W/m2
09:31 2.2 °C 1.6 °C 977.3 hPa NE 4.7 km/h 4.8 km/h 96% 0.0 mm 35 W/m2
09:36 2.4 °C 1.8 °C 977.3 hPa ENE 1.4 km/h 4.8 km/h 96% 0.0 mm 49 W/m2
09:41 2.6 °C 2 °C 977.3 hPa ENE 4.7 km/h 6.4 km/h 96% 0.0 mm 32 W/m2
09:46 2.7 °C 2.1 °C 977.3 hPa Calm   3.2 km/h 96% 0.2 mm 44 W/m2
09:51 2.7 °C 2.1 °C 977.3 hPa Calm   6.4 km/h 96% 0.2 mm 49 W/m2
09:56 2.8 °C 2.2 °C 977.3 hPa NNW 3.2 km/h 3.2 km/h 96% 0.2 mm 47 W/m2
10:01 2.9 °C 2.3 °C 977.3 hPa NNE 3.2 km/h 3.2 km/h 96% 0.2 mm 40 W/m2
10:06 3.1 °C 2.5 °C 977.3 hPa North 1.4 km/h 3.2 km/h 96% 0.5 mm 39 W/m2
10:11 3.1 °C 2.5 °C 977.3 hPa Calm   3.2 km/h 96% 0.5 mm 28 W/m2
10:16 3.2 °C 2.6 °C 977.3 hPa NE 1.4 km/h 4.8 km/h 96% 0.5 mm 19 W/m2
10:21 3.3 °C 2.7 °C 977.3 hPa Calm   4.8 km/h 96% 0.5 mm 14 W/m2
10:26 3.4 °C 2.8 °C 977.3 hPa NE 1.4 km/h 6.4 km/h 96% 0.5 mm 12 W/m2
10:31 3.4 °C 2.8 °C 977.3 hPa NE 3.2 km/h 3.2 km/h 96% 0.8 mm 12 W/m2
10:36 3.4 °C 2.8 °C 977.3 hPa Calm   3.2 km/h 96% 1.0 mm 16 W/m2
10:41 3.3 °C 2.7 °C 977.6 hPa North 1.4 km/h 3.2 km/h 96% 1.3 mm 23 W/m2
10:46 3.2 °C 2.6 °C 977.6 hPa Calm   6.4 km/h 96% 1.3 mm 39 W/m2
10:52 3.2 °C 2.6 °C 977.6 hPa North 1.4 km/h 4.8 km/h 96% 1.3 mm 46 W/m2
10:57 3.2 °C 2.6 °C 977.6 hPa NE 1.4 km/h 4.8 km/h 96% 1.3 mm 63 W/m2
11:02 3.2 °C 2.5 °C 977.6 hPa North 1.4 km/h 3.2 km/h 95% 1.3 mm 65 W/m2
11:07 3.2 °C 2.5 °C 977.6 hPa Calm     95% 1.0 mm 67 W/m2
11:12 3.3 °C 2.6 °C 977.3 hPa NE 1.4 km/h 1.6 km/h 95% 1.3 mm 49 W/m2
11:17 3.3 °C 2.6 °C 977.3 hPa Calm   6.4 km/h 95% 1.3 mm 54 W/m2
11:22 3.4 °C 2.7 °C 977.6 hPa East 1.4 km/h 6.4 km/h 95% 1.3 mm 42 W/m2
11:27 3.4 °C 2.7 °C 977.3 hPa East 1.4 km/h 3.2 km/h 95% 1.0 mm 51 W/m2
11:32 3.5 °C 2.8 °C 977.3 hPa ENE 3.2 km/h 6.4 km/h 95% 0.8 mm 49 W/m2
11:37 3.6 °C 2.9 °C 977.3 hPa ENE 1.4 km/h 4.8 km/h 95% 0.5 mm 40 W/m2
11:42 3.6 °C 2.9 °C 977.3 hPa East 3.2 km/h 4.8 km/h 95% 0.5 mm 39 W/m2
11:47 3.6 °C 2.9 °C 977.3 hPa ENE 3.2 km/h 4.8 km/h 95% 0.2 mm 40 W/m2
11:52 3.7 °C 3 °C 977.3 hPa East 1.4 km/h 4.8 km/h 95% 0.2 mm 39 W/m2
11:57 3.7 °C 3 °C 977.3 hPa East 1.4 km/h 1.6 km/h 95% 0.5 mm 42 W/m2
12:02 3.7 °C 3 °C 977.3 hPa East 3.2 km/h 4.8 km/h 95% 0.5 mm 44 W/m2
12:07 3.8 °C 3.1 °C 977.3 hPa NNW 3.2 km/h 4.8 km/h 95% 0.5 mm 51 W/m2
12:12 3.8 °C 3.1 °C 977.3 hPa NW 3.2 km/h 4.8 km/h 95% 0.5 mm 46 W/m2
12:17 3.9 °C 3.2 °C 977.3 hPa NNE 1.4 km/h 4.8 km/h 95% 0.5 mm 39 W/m2
12:22 3.9 °C 3.2 °C 977.3 hPa North 3.2 km/h 4.8 km/h 95% 0.5 mm 42 W/m2
12:27 4 °C 3.3 °C 977.3 hPa SW 4.7 km/h 6.4 km/h 95% 0.5 mm 39 W/m2
12:32 4 °C 3.1 °C 977.3 hPa ENE 7.9 km/h 17.7 km/h 94% 0.8 mm 65 W/m2
12:37 4.1 °C 3.2 °C 977.3 hPa NW 4.7 km/h 11.3 km/h 94% 0.8 mm 86 W/m2
12:42 4.1 °C 3.2 °C 977.3 hPa NNW 4.7 km/h 17.7 km/h 94% 0.8 mm 91 W/m2
12:47 4.1 °C 3.1 °C 977.3 hPa West 6.4 km/h 16.1 km/h 93% 0.8 mm 95 W/m2
12:52 4.2 °C 3.2 °C 977.3 hPa West 4.7 km/h 6.4 km/h 93% 0.8 mm 91 W/m2
12:57 4.2 °C 3.2 °C 977.3 hPa North 1.4 km/h 16.1 km/h 93% 0.8 mm 107 W/m2
13:02 4.2 °C 3.2 °C 977.3 hPa WNW 6.4 km/h 8 km/h 93% 0.8 mm 86 W/m2
13:07 4.2 °C 3 °C 977.6 hPa NNW 3.2 km/h 8 km/h 92% 0.8 mm 74 W/m2
13:12 4.2 °C 3 °C 977.6 hPa SSW 4.7 km/h 17.7 km/h 92% 0.5 mm 90 W/m2
13:17 4.3 °C 3.1 °C 977.6 hPa NNE 1.4 km/h 6.4 km/h 92% 0.5 mm 141 W/m2
13:22 4.3 °C 3.1 °C 977.6 hPa West 1.4 km/h 14.5 km/h 92% 0.5 mm 158 W/m2
13:27 4.3 °C 3.1 °C 977.6 hPa WNW 1.4 km/h 17.7 km/h 92% 0.5 mm 116 W/m2
13:32 4.3 °C 3.1 °C 977.6 hPa WSW 1.4 km/h 16.1 km/h 92% 0.2 mm 70 W/m2
13:37 4.3 °C 3 °C 977.6 hPa NW 3.2 km/h 17.7 km/h 91% 0.2 mm 53 W/m2
13:42 4.3 °C 3 °C 977.6 hPa NW 3.2 km/h 4.8 km/h 91% 0.2 mm 165 W/m2
13:47 4.3 °C 3 °C 977.6 hPa NNW 1.4 km/h 4.8 km/h 91% 0.2 mm 123 W/m2
13:52 4.3 °C 3 °C 977.6 hPa NW 4.7 km/h 11.3 km/h 91% 0.2 mm 114 W/m2
13:57 4.3 °C 3 °C 977.6 hPa Calm   4.8 km/h 91% 0.0 mm 90 W/m2
14:02 4.3 °C 3 °C 977.6 hPa NW 3.2 km/h 11.3 km/h 91% 0.0 mm 121 W/m2
14:07 4.4 °C 3.1 °C 977.6 hPa ENE 1.4 km/h 3.2 km/h 91% 0.0 mm 123 W/m2
14:12 4.4 °C 3.1 °C 978.0 hPa Calm   6.4 km/h 91% 0.0 mm 74 W/m2
14:17 4.4 °C 3.1 °C 978.0 hPa North 1.4 km/h 24.1 km/h 91% 0.0 mm 76 W/m2
14:22 4.4 °C 2.9 °C 978.0 hPa NNW 3.2 km/h 4.8 km/h 90% 0.0 mm 56 W/m2
14:27 4.4 °C 2.9 °C 978.0 hPa West 3.2 km/h 22.5 km/h 90% 0.0 mm 77 W/m2
14:32 4.4 °C 2.7 °C 978.0 hPa WNW 7.9 km/h 8 km/h 89% 0.0 mm 90 W/m2
14:37 4.4 °C 2.7 °C 978.0 hPa WSW 1.4 km/h 6.4 km/h 89% 0.0 mm 63 W/m2
14:42 4.4 °C 2.7 °C 978.0 hPa SW 6.4 km/h 16.1 km/h 89% 0.0 mm 47 W/m2
14:47 4.3 °C 2.6 °C 978.0 hPa NNW 3.2 km/h 4.8 km/h 89% 0.0 mm 42 W/m2
14:53 4.3 °C 2.6 °C 978.3 hPa NW 1.4 km/h 16.1 km/h 89% 0.0 mm 35 W/m2
14:58 4.4 °C 2.7 °C 978.0 hPa NW 1.4 km/h 3.2 km/h 89% 0.0 mm 32 W/m2
15:03 4.4 °C 2.7 °C 978.0 hPa Calm   1.6 km/h 89% 0.0 mm 88 W/m2
15:08 4.4 °C 2.7 °C 978.0 hPa NNW 6.4 km/h 6.4 km/h 89% 0.0 mm 32 W/m2
15:13 4.4 °C 2.6 °C 978.0 hPa NNE 1.4 km/h 12.9 km/h 88% 0.0 mm 33 W/m2
15:18 4.4 °C 2.6 °C 978.0 hPa Calm   1.6 km/h 88% 0.0 mm 30 W/m2
15:23 4.4 °C 2.6 °C 978.0 hPa NNW 1.4 km/h 4.8 km/h 88% 0.0 mm 25 W/m2
15:28 4.4 °C 2.6 °C 978.3 hPa West 9.7 km/h 14.5 km/h 88% 0.0 mm 16 W/m2
15:33 4.3 °C 2.5 °C 978.0 hPa NW 4.7 km/h 9.7 km/h 88% 0.0 mm 14 W/m2
15:38 4.3 °C 2.5 °C 978.3 hPa NW 7.9 km/h 16.1 km/h 88% 0.0 mm 32 W/m2
15:43 4.3 °C 2.3 °C 978.0 hPa NW 4.7 km/h 14.5 km/h 87% 0.0 mm 19 W/m2
15:48 4.2 °C 2.2 °C 978.0 hPa NNE 1.4 km/h 6.4 km/h 87% 0.0 mm 16 W/m2
15:53 4.1 °C 2.3 °C 978.0 hPa NNE 1.4 km/h 4.8 km/h 88% 0.0 mm 12 W/m2
15:58 4 °C 2.2 °C 978.0 hPa Calm   4.8 km/h 88% 0.0 mm 16 W/m2
16:03 3.9 °C 2.1 °C 978.0 hPa NE 3.2 km/h 9.7 km/h 88% 0.0 mm 18 W/m2
16:08 3.9 °C 2.1 °C 978.0 hPa WNW 11.1 km/h 12.9 km/h 88% 0.0 mm 11 W/m2
16:13 3.8 °C 2 °C 978.3 hPa NNW 1.4 km/h 11.3 km/h 88% 0.0 mm 11 W/m2
16:18 3.8 °C 2 °C 978.0 hPa NW 3.2 km/h 6.4 km/h 88% 0.0 mm 9 W/m2
16:23 3.7 °C 1.9 °C 978.3 hPa SW 1.4 km/h 11.3 km/h 88% 0.0 mm 7 W/m2
16:28 3.6 °C 1.8 °C 978.3 hPa East 1.4 km/h 3.2 km/h 88% 0.0 mm 5 W/m2
16:33 3.5 °C 1.7 °C 978.3 hPa North 1.4 km/h 3.2 km/h 88% 0.0 mm 5 W/m2
16:38 3.4 °C 1.6 °C 978.3 hPa Calm   3.2 km/h 88% 0.0 mm 0 W/m2
16:43 3.4 °C 1.8 °C 978.3 hPa NNE 3.2 km/h 8 km/h 89% 0.0 mm 0 W/m2
16:48 3.3 °C 1.7 °C 978.3 hPa ENE 3.2 km/h 4.8 km/h 89% 0.0 mm 0 W/m2
16:53 3.3 °C 1.7 °C 978.0 hPa North 3.2 km/h 4.8 km/h 89% 0.0 mm 0 W/m2
16:58 3.3 °C 1.7 °C 978.0 hPa ENE 1.4 km/h 3.2 km/h 89% 0.0 mm 0 W/m2
17:03 3.3 °C 1.7 °C 978.0 hPa Calm   3.2 km/h 89% 0.0 mm 0 W/m2
17:08 3.3 °C 1.7 °C 978.0 hPa Calm   3.2 km/h 89% 0.0 mm 0 W/m2
17:13 3.2 °C 1.6 °C 978.0 hPa North 1.4 km/h 1.6 km/h 89% 0.0 mm 0 W/m2
17:18 3.1 °C 1.5 °C 978.0 hPa North 1.4 km/h 3.2 km/h 89% 0.0 mm 0 W/m2
17:23 2.9 °C 1.4 °C 978.0 hPa Calm   1.6 km/h 90% 0.0 mm 0 W/m2
17:28 2.7 °C 1.2 °C 978.0 hPa Calm     90% 0.0 mm 0 W/m2
17:33 2.4 °C 0.9 °C 978.0 hPa Calm     90% 0.0 mm 0 W/m2
17:38 2.2 °C 0.7 °C 977.6 hPa Calm     90% 0.0 mm 0 W/m2
17:43 2 °C 0.7 °C 978.0 hPa Calm     91% 0.0 mm 0 W/m2
17:48 1.8 °C 0.5 °C 977.6 hPa Calm     91% 0.0 mm 0 W/m2
17:53 1.6 °C 0.4 °C 977.6 hPa Calm     92% 0.0 mm 0 W/m2
17:58 1.4 °C 0.2 °C 977.6 hPa Calm     92% 0.0 mm 0 W/m2
18:03 1.3 °C 0.1 °C 977.6 hPa Calm     92% 0.0 mm 0 W/m2
18:08 1.2 °C 0.2 °C 977.6 hPa Calm   3.2 km/h 93% 0.0 mm 0 W/m2
18:13 1.1 °C 0.1 °C 977.6 hPa North 1.4 km/h 3.2 km/h 93% 0.0 mm 0 W/m2
18:18 1 °C 0 °C 977.6 hPa Calm     93% 0.0 mm 0 W/m2
18:23 0.9 °C -0.1 °C 977.6 hPa Calm   1.6 km/h 93% 0.0 mm 0 W/m2
18:28 0.9 °C 0 °C 977.6 hPa Calm   1.6 km/h 94% 0.0 mm 0 W/m2
18:33 0.8 °C -0.1 °C 977.6 hPa Calm   1.6 km/h 94% 0.0 mm 0 W/m2
18:38 0.7 °C -0.2 °C 977.6 hPa Calm     94% 0.0 mm 0 W/m2
18:43 0.6 °C -0.3 °C 977.6 hPa Calm     94% 0.0 mm 0 W/m2
18:48 0.5 °C -0.4 °C 977.6 hPa Calm     94% 0.0 mm 0 W/m2
18:53 0.4 °C -0.5 °C 977.6 hPa Calm     94% 0.0 mm 0 W/m2
18:58 0.2 °C -0.7 °C 977.6 hPa Calm     94% 0.0 mm 0 W/m2
19:03 0.2 °C -0.7 °C 977.6 hPa Calm   1.6 km/h 94% 0.0 mm 0 W/m2
19:08 0.1 °C -0.8 °C 977.3 hPa Calm     94% 0.0 mm 0 W/m2
19:13 0 °C -0.8 °C 977.6 hPa Calm     94% 0.0 mm 0 W/m2
19:18 0 °C -0.7 °C 977.6 hPa Calm     95% 0.0 mm 0 W/m2
19:23 -0.1 °C -0.8 °C 977.6 hPa Calm     95% 0.0 mm 0 W/m2
19:28 -0.2 °C -0.9 °C 977.6 hPa Calm     95% 0.0 mm 0 W/m2
19:33 -0.2 °C -0.9 °C 977.3 hPa Calm     95% 0.0 mm 0 W/m2
19:38 -0.2 °C -0.9 °C 977.6 hPa Calm     95% 0.0 mm 0 W/m2
19:43 -0.2 °C -0.9 °C 977.3 hPa Calm   3.2 km/h 95% 0.0 mm 0 W/m2
19:48 -0.2 °C -0.9 °C 977.3 hPa Calm     95% 0.0 mm 0 W/m2
19:53 -0.1 °C -0.7 °C 977.3 hPa Calm   1.6 km/h 96% 0.0 mm 0 W/m2
19:58 0.1 °C -0.5 °C 977.3 hPa Calm     96% 0.0 mm 0 W/m2
20:03 0.2 °C -0.4 °C 977.3 hPa West 1.4 km/h 1.6 km/h 96% 0.0 mm 0 W/m2
20:08 0.5 °C -0.1 °C 977.3 hPa ENE 3.2 km/h 3.2 km/h 96% 0.0 mm 0 W/m2
20:13 0.8 °C 0.2 °C 977.3 hPa ENE 3.2 km/h 3.2 km/h 96% 0.0 mm 0 W/m2
20:18 1 °C 0.4 °C 977.6 hPa NE 4.7 km/h 6.4 km/h 96% 0.0 mm 0 W/m2
20:23 1.1 °C 0.5 °C 977.3 hPa NNE 6.4 km/h 6.4 km/h 96% 0.0 mm 0 W/m2
20:28 1.2 °C 0.6 °C 977.3 hPa ENE 9.7 km/h 9.7 km/h 96% 0.0 mm 0 W/m2
20:33 1.3 °C 0.7 °C 977.3 hPa East 3.2 km/h 9.7 km/h 96% 0.0 mm 0 W/m2
20:38 1.4 °C 0.8 °C 977.3 hPa East 3.2 km/h 6.4 km/h 96% 0.0 mm 0 W/m2
20:43 1.4 °C 0.7 °C 977.0 hPa Calm   3.2 km/h 95% 0.0 mm 0 W/m2
20:48 1.4 °C 0.7 °C 977.0 hPa ENE 1.4 km/h 3.2 km/h 95% 0.0 mm 0 W/m2
20:53 1.3 °C 0.6 °C 977.0 hPa ENE 3.2 km/h 3.2 km/h 95% 0.0 mm 0 W/m2
20:58 1.2 °C 0.5 °C 977.0 hPa East 1.4 km/h 3.2 km/h 95% 0.0 mm 0 W/m2
21:03 1.1 °C 0.4 °C 977.0 hPa East 1.4 km/h 3.2 km/h 95% 0.0 mm 0 W/m2
21:08 0.9 °C 0.2 °C 977.0 hPa Calm   3.2 km/h 95% 0.0 mm 0 W/m2
21:14 0.9 °C 0.2 °C 977.0 hPa ESE 3.2 km/h 4.8 km/h 95% 0.0 mm 0 W/m2
21:19 0.8 °C 0.1 °C 977.0 hPa ESE 3.2 km/h 4.8 km/h 95% 0.0 mm 0 W/m2
21:24 0.8 °C 0.1 °C 977.0 hPa ENE 3.2 km/h 4.8 km/h 95% 0.0 mm 0 W/m2
21:29 0.8 °C 0.1 °C 977.0 hPa Calm   3.2 km/h 95% 0.0 mm 0 W/m2
21:34 0.8 °C 0.1 °C 977.0 hPa Calm     95% 0.0 mm 0 W/m2
21:39 0.8 °C 0.1 °C 977.0 hPa Calm     95% 0.0 mm 0 W/m2
21:44 0.8 °C 0.1 °C 977.0 hPa ESE 1.4 km/h 3.2 km/h 95% 0.0 mm 0 W/m2
21:49 0.8 °C 0.1 °C 977.0 hPa ESE 1.4 km/h 3.2 km/h 95% 0.0 mm 0 W/m2
21:54 0.8 °C 0.2 °C 977.0 hPa Calm     96% 0.0 mm 0 W/m2
21:59 0.8 °C 0.2 °C 977.0 hPa Calm     96% 0.0 mm 0 W/m2
22:04 0.7 °C 0.1 °C 976.6 hPa East 1.4 km/h 3.2 km/h 96% 0.0 mm 0 W/m2
22:09 0.7 °C 0.1 °C 976.6 hPa Calm     96% 0.0 mm 0 W/m2
22:14 0.8 °C 0.2 °C 977.0 hPa ENE 1.4 km/h 4.8 km/h 96% 0.0 mm 0 W/m2
22:19 0.8 °C 0.2 °C 976.6 hPa ENE 1.4 km/h 4.8 km/h 96% 0.0 mm 0 W/m2
22:24 1 °C 0.4 °C 976.6 hPa Calm   3.2 km/h 96% 0.0 mm 0 W/m2
22:29 1.1 °C 0.5 °C 976.6 hPa NE 3.2 km/h 4.8 km/h 96% 0.5 mm 0 W/m2
22:34 1.2 °C 0.6 °C 976.6 hPa East 1.4 km/h 3.2 km/h 96% 0.8 mm 0 W/m2
22:39 1.2 °C 0.6 °C 976.6 hPa East 1.4 km/h 6.4 km/h 96% 1.0 mm 0 W/m2
22:44 1.3 °C 0.7 °C 976.6 hPa ENE 4.7 km/h 4.8 km/h 96% 1.0 mm 0 W/m2
22:49 1.4 °C 0.8 °C 976.6 hPa NNE 4.7 km/h 4.8 km/h 96% 1.3 mm 0 W/m2
22:54 1.5 °C 0.9 °C 976.6 hPa Calm   1.6 km/h 96% 1.3 mm 0 W/m2
22:59 1.5 °C 0.9 °C 976.6 hPa Calm   1.6 km/h 96% 1.3 mm 0 W/m2
23:04 1.4 °C 0.8 °C 976.6 hPa Calm     96% 1.5 mm 0 W/m2
23:09 1.3 °C 0.7 °C 976.6 hPa Calm     96% 1.5 mm 0 W/m2
23:14 1.3 °C 0.7 °C 976.6 hPa East 1.4 km/h 1.6 km/h 96% 1.5 mm 0 W/m2
23:19 1.3 °C 0.7 °C 976.6 hPa Calm   1.6 km/h 96% 1.5 mm 0 W/m2
23:24 1.3 °C 0.7 °C 976.6 hPa Calm     96% 1.5 mm 0 W/m2
23:29 1.3 °C 0.7 °C 976.6 hPa Calm     96% 1.0 mm 0 W/m2
23:34 1.3 °C 0.7 °C 976.6 hPa Calm     96% 1.0 mm 0 W/m2
23:39 1.3 °C 0.7 °C 976.6 hPa Calm     96% 0.8 mm 0 W/m2
23:44 1.3 °C 0.7 °C 976.6 hPa Calm   1.6 km/h 96% 0.8 mm 0 W/m2
23:49 1.3 °C 0.7 °C 976.6 hPa Calm     96% 0.5 mm 0 W/m2
23:54 1.3 °C 0.7 °C 977.0 hPa Calm   1.6 km/h 96% 0.5 mm 0 W/m2
23:59 1.4 °C 0.8 °C 977.0 hPa Calm     96% 0.5 mm 0 W/m2
Juneau County Weather
Compliments of Weather Underground - 4 mb